sensor_id;sensor_type;location;lat;lon;timestamp;P1;durP1;ratioP1;P2;durP2;ratioP2
3922;SDS011;1976;51.694;6.256;2022-09-12T00:01:06;20.43;;;14.73;;
3922;SDS011;1976;51.694;6.256;2022-09-12T00:03:40;21.83;;;14.20;;
3922;SDS011;1976;51.694;6.256;2022-09-12T00:06:10;22.70;;;14.73;;
3922;SDS011;1976;51.694;6.256;2022-09-12T00:08:40;22.20;;;14.73;;
3922;SDS011;1976;51.694;6.256;2022-09-12T00:11:06;20.67;;;12.30;;
3922;SDS011;1976;51.694;6.256;2022-09-12T00:13:34;18.67;;;13.50;;
3922;SDS011;1976;51.694;6.256;2022-09-12T00:16:01;19.30;;;14.53;;
3922;SDS011;1976;51.694;6.256;2022-09-12T00:18:27;19.90;;;14.70;;
3922;SDS011;1976;51.694;6.256;2022-09-12T00:20:52;22.60;;;15.33;;
3922;SDS011;1976;51.694;6.256;2022-09-12T00:23:18;23.53;;;15.67;;
3922;SDS011;1976;51.694;6.256;2022-09-12T00:25:44;25.30;;;16.33;;
3922;SDS011;1976;51.694;6.256;2022-09-12T00:28:12;22.07;;;15.73;;
3922;SDS011;1976;51.694;6.256;2022-09-12T00:30:40;32.97;;;17.90;;
3922;SDS011;1976;51.694;6.256;2022-09-12T00:33:07;25.97;;;16.30;;
3922;SDS011;1976;51.694;6.256;2022-09-12T00:35:33;20.80;;;14.60;;
3922;SDS011;1976;51.694;6.256;2022-09-12T00:37:59;22.40;;;15.40;;
3922;SDS011;1976;51.694;6.256;2022-09-12T00:40:24;29.40;;;14.80;;
3922;SDS011;1976;51.694;6.256;2022-09-12T00:42:52;26.43;;;16.70;;
3922;SDS011;1976;51.694;6.256;2022-09-12T00:45:19;27.30;;;16.50;;
3922;SDS011;1976;51.694;6.256;2022-09-12T00:47:51;24.07;;;17.07;;
3922;SDS011;1976;51.694;6.256;2022-09-12T00:50:18;28.23;;;16.83;;
3922;SDS011;1976;51.694;6.256;2022-09-12T00:52:45;22.07;;;16.63;;
3922;SDS011;1976;51.694;6.256;2022-09-12T00:55:25;29.60;;;17.83;;
3922;SDS011;1976;51.694;6.256;2022-09-12T00:58:14;23.20;;;15.83;;
3922;SDS011;1976;51.694;6.256;2022-09-12T01:00:50;36.13;;;17.03;;
3922;SDS011;1976;51.694;6.256;2022-09-12T01:03:16;29.40;;;17.90;;
3922;SDS011;1976;51.694;6.256;2022-09-12T01:06:31;28.67;;;16.83;;
3922;SDS011;1976;51.694;6.256;2022-09-12T01:08:38;27.07;;;17.97;;
3922;SDS011;1976;51.694;6.256;2022-09-12T01:11:07;29.20;;;18.80;;
3922;SDS011;1976;51.694;6.256;2022-09-12T01:13:35;28.10;;;18.67;;
3922;SDS011;1976;51.694;6.256;2022-09-12T01:16:05;36.90;;;19.80;;
3922;SDS011;1976;51.694;6.256;2022-09-12T01:26:59;30.30;;;17.83;;
3922;SDS011;1976;51.694;6.256;2022-09-12T01:32:35;29.03;;;16.90;;
3922;SDS011;1976;51.694;6.256;2022-09-12T01:35:17;32.73;;;19.97;;
3922;SDS011;1976;51.694;6.256;2022-09-12T01:38:06;35.73;;;20.07;;
3922;SDS011;1976;51.694;6.256;2022-09-12T01:45:56;33.30;;;20.00;;
3922;SDS011;1976;51.694;6.256;2022-09-12T01:48:28;37.83;;;20.17;;
3922;SDS011;1976;51.694;6.256;2022-09-12T01:51:11;38.67;;;22.13;;
3922;SDS011;1976;51.694;6.256;2022-09-12T01:53:53;34.33;;;19.47;;
3922;SDS011;1976;51.694;6.256;2022-09-12T01:56:28;34.40;;;19.63;;
3922;SDS011;1976;51.694;6.256;2022-09-12T02:01:32;53.00;;;26.97;;
3922;SDS011;1976;51.694;6.256;2022-09-12T02:04:08;54.10;;;24.87;;
3922;SDS011;1976;51.694;6.256;2022-09-12T02:11:47;42.73;;;22.10;;
3922;SDS011;1976;51.694;6.256;2022-09-12T02:14:38;46.90;;;25.10;;
3922;SDS011;1976;51.694;6.256;2022-09-12T02:17:13;48.27;;;25.40;;
3922;SDS011;1976;51.694;6.256;2022-09-12T02:19:45;50.17;;;25.07;;
3922;SDS011;1976;51.694;6.256;2022-09-12T02:22:16;45.63;;;23.50;;
3922;SDS011;1976;51.694;6.256;2022-09-12T02:24:45;46.70;;;24.70;;
3922;SDS011;1976;51.694;6.256;2022-09-12T02:27:15;36.10;;;20.40;;
3922;SDS011;1976;51.694;6.256;2022-09-12T02:29:46;46.47;;;23.90;;
3922;SDS011;1976;51.694;6.256;2022-09-12T02:32:31;41.67;;;25.00;;
3922;SDS011;1976;51.694;6.256;2022-09-12T02:35:08;61.37;;;25.87;;
3922;SDS011;1976;51.694;6.256;2022-09-12T02:40:26;56.43;;;23.50;;
3922;SDS011;1976;51.694;6.256;2022-09-12T02:42:53;54.03;;;23.40;;
3922;SDS011;1976;51.694;6.256;2022-09-12T02:45:19;44.13;;;22.13;;
3922;SDS011;1976;51.694;6.256;2022-09-12T02:47:57;51.00;;;26.77;;
3922;SDS011;1976;51.694;6.256;2022-09-12T02:50:27;47.00;;;23.80;;
3922;SDS011;1976;51.694;6.256;2022-09-12T02:52:53;48.57;;;24.77;;
3922;SDS011;1976;51.694;6.256;2022-09-12T02:55:24;61.93;;;27.60;;
3922;SDS011;1976;51.694;6.256;2022-09-12T02:57:51;46.13;;;23.90;;
3922;SDS011;1976;51.694;6.256;2022-09-12T03:00:16;50.80;;;25.60;;
3922;SDS011;1976;51.694;6.256;2022-09-12T03:17:06;52.93;;;28.73;;
3922;SDS011;1976;51.694;6.256;2022-09-12T03:20:07;72.60;;;30.70;;
3922;SDS011;1976;51.694;6.256;2022-09-12T03:25:36;71.27;;;29.90;;
3922;SDS011;1976;51.694;6.256;2022-09-12T03:28:08;65.77;;;29.57;;
3922;SDS011;1976;51.694;6.256;2022-09-12T03:30:39;66.43;;;29.47;;
3922;SDS011;1976;51.694;6.256;2022-09-12T03:33:14;71.83;;;29.27;;
3922;SDS011;1976;51.694;6.256;2022-09-12T03:35:44;71.73;;;27.37;;
3922;SDS011;1976;51.694;6.256;2022-09-12T03:38:11;70.27;;;31.43;;
3922;SDS011;1976;51.694;6.256;2022-09-12T03:40:37;56.53;;;28.03;;
3922;SDS011;1976;51.694;6.256;2022-09-12T03:43:04;73.20;;;30.40;;
3922;SDS011;1976;51.694;6.256;2022-09-12T03:45:30;62.03;;;30.37;;
3922;SDS011;1976;51.694;6.256;2022-09-12T03:47:56;73.43;;;30.17;;
3922;SDS011;1976;51.694;6.256;2022-09-12T03:50:22;58.00;;;28.30;;
3922;SDS011;1976;51.694;6.256;2022-09-12T03:52:48;71.37;;;29.23;;
3922;SDS011;1976;51.694;6.256;2022-09-12T03:55:13;64.13;;;29.50;;
3922;SDS011;1976;51.694;6.256;2022-09-12T03:57:39;75.73;;;30.83;;
3922;SDS011;1976;51.694;6.256;2022-09-12T04:00:05;54.73;;;29.03;;
3922;SDS011;1976;51.694;6.256;2022-09-12T04:02:35;61.03;;;28.63;;
3922;SDS011;1976;51.694;6.256;2022-09-12T04:05:01;59.50;;;28.53;;
3922;SDS011;1976;51.694;6.256;2022-09-12T04:07:27;65.47;;;28.90;;
3922;SDS011;1976;51.694;6.256;2022-09-12T04:09:53;56.23;;;25.23;;
3922;SDS011;1976;51.694;6.256;2022-09-12T04:12:19;63.90;;;26.67;;
3922;SDS011;1976;51.694;6.256;2022-09-12T04:14:44;76.63;;;28.27;;
3922;SDS011;1976;51.694;6.256;2022-09-12T04:17:10;71.70;;;30.10;;
3922;SDS011;1976;51.694;6.256;2022-09-12T04:19:36;61.20;;;27.77;;
3922;SDS011;1976;51.694;6.256;2022-09-12T04:22:03;70.07;;;27.97;;
3922;SDS011;1976;51.694;6.256;2022-09-12T04:24:29;64.47;;;26.47;;
3922;SDS011;1976;51.694;6.256;2022-09-12T04:26:55;60.80;;;27.10;;
3922;SDS011;1976;51.694;6.256;2022-09-12T04:29:21;60.97;;;24.67;;
3922;SDS011;1976;51.694;6.256;2022-09-12T04:31:46;65.77;;;27.97;;
3922;SDS011;1976;51.694;6.256;2022-09-12T04:34:12;64.23;;;25.97;;
3922;SDS011;1976;51.694;6.256;2022-09-12T04:36:39;61.43;;;27.17;;
3922;SDS011;1976;51.694;6.256;2022-09-12T04:39:05;60.57;;;28.03;;
3922;SDS011;1976;51.694;6.256;2022-09-12T04:41:35;57.27;;;27.60;;
3922;SDS011;1976;51.694;6.256;2022-09-12T04:44:03;59.27;;;26.23;;
3922;SDS011;1976;51.694;6.256;2022-09-12T04:46:35;59.40;;;25.97;;
3922;SDS011;1976;51.694;6.256;2022-09-12T04:49:02;56.67;;;26.00;;
3922;SDS011;1976;51.694;6.256;2022-09-12T04:51:30;58.10;;;26.00;;
3922;SDS011;1976;51.694;6.256;2022-09-12T04:54:01;58.23;;;25.37;;
3922;SDS011;1976;51.694;6.256;2022-09-12T04:56:30;50.90;;;24.97;;
3922;SDS011;1976;51.694;6.256;2022-09-12T04:58:59;50.13;;;22.97;;
3922;SDS011;1976;51.694;6.256;2022-09-12T05:01:26;58.87;;;24.77;;
3922;SDS011;1976;51.694;6.256;2022-09-12T05:03:53;47.73;;;24.80;;
3922;SDS011;1976;51.694;6.256;2022-09-12T05:06:21;46.87;;;24.50;;
3922;SDS011;1976;51.694;6.256;2022-09-12T05:08:54;51.30;;;24.63;;
3922;SDS011;1976;51.694;6.256;2022-09-12T05:11:21;42.70;;;23.47;;
3922;SDS011;1976;51.694;6.256;2022-09-12T05:13:49;52.03;;;23.37;;
3922;SDS011;1976;51.694;6.256;2022-09-12T05:16:15;60.77;;;23.97;;
3922;SDS011;1976;51.694;6.256;2022-09-12T05:18:42;47.37;;;24.83;;
3922;SDS011;1976;51.694;6.256;2022-09-12T05:21:10;49.37;;;24.40;;
3922;SDS011;1976;51.694;6.256;2022-09-12T05:23:38;54.30;;;24.67;;
3922;SDS011;1976;51.694;6.256;2022-09-12T05:26:04;40.73;;;22.03;;
3922;SDS011;1976;51.694;6.256;2022-09-12T05:28:32;46.20;;;23.77;;
3922;SDS011;1976;51.694;6.256;2022-09-12T05:33:34;43.37;;;22.90;;
3922;SDS011;1976;51.694;6.256;2022-09-12T05:36:01;50.03;;;22.87;;
3922;SDS011;1976;51.694;6.256;2022-09-12T05:38:28;40.53;;;22.17;;
3922;SDS011;1976;51.694;6.256;2022-09-12T05:41:04;45.47;;;20.90;;
3922;SDS011;1976;51.694;6.256;2022-09-12T05:43:34;51.73;;;24.40;;
3922;SDS011;1976;51.694;6.256;2022-09-12T05:46:02;37.20;;;19.87;;
3922;SDS011;1976;51.694;6.256;2022-09-12T05:48:29;42.17;;;21.97;;
3922;SDS011;1976;51.694;6.256;2022-09-12T05:50:58;48.40;;;22.17;;
3922;SDS011;1976;51.694;6.256;2022-09-12T05:53:35;37.67;;;20.30;;
3922;SDS011;1976;51.694;6.256;2022-09-12T05:58:36;47.73;;;23.20;;
3922;SDS011;1976;51.694;6.256;2022-09-12T06:01:13;43.47;;;22.60;;
3922;SDS011;1976;51.694;6.256;2022-09-12T06:03:41;38.60;;;19.80;;
3922;SDS011;1976;51.694;6.256;2022-09-12T06:06:09;37.43;;;21.33;;
3922;SDS011;1976;51.694;6.256;2022-09-12T06:08:39;40.93;;;22.50;;
3922;SDS011;1976;51.694;6.256;2022-09-12T06:11:06;38.23;;;20.17;;
3922;SDS011;1976;51.694;6.256;2022-09-12T06:13:34;35.30;;;17.73;;
3922;SDS011;1976;51.694;6.256;2022-09-12T06:16:02;38.23;;;20.20;;
3922;SDS011;1976;51.694;6.256;2022-09-12T06:18:49;39.17;;;20.13;;
3922;SDS011;1976;51.694;6.256;2022-09-12T06:21:19;38.40;;;20.20;;
3922;SDS011;1976;51.694;6.256;2022-09-12T06:23:46;39.27;;;21.10;;
3922;SDS011;1976;51.694;6.256;2022-09-12T06:26:12;46.10;;;21.10;;
3922;SDS011;1976;51.694;6.256;2022-09-12T06:28:40;48.73;;;21.57;;
3922;SDS011;1976;51.694;6.256;2022-09-12T06:31:09;37.73;;;20.43;;
3922;SDS011;1976;51.694;6.256;2022-09-12T06:33:37;36.10;;;21.10;;
3922;SDS011;1976;51.694;6.256;2022-09-12T06:36:08;35.37;;;20.90;;
3922;SDS011;1976;51.694;6.256;2022-09-12T06:39:00;42.10;;;21.27;;
3922;SDS011;1976;51.694;6.256;2022-09-12T06:41:31;38.57;;;20.50;;
3922;SDS011;1976;51.694;6.256;2022-09-12T06:43:58;39.43;;;20.57;;
3922;SDS011;1976;51.694;6.256;2022-09-12T06:46:24;43.23;;;21.93;;
3922;SDS011;1976;51.694;6.256;2022-09-12T06:48:51;48.43;;;20.10;;
3922;SDS011;1976;51.694;6.256;2022-09-12T06:51:17;40.23;;;19.63;;
3922;SDS011;1976;51.694;6.256;2022-09-12T06:53:44;39.70;;;19.50;;
3922;SDS011;1976;51.694;6.256;2022-09-12T06:56:14;41.73;;;22.10;;
3922;SDS011;1976;51.694;6.256;2022-09-12T06:58:45;39.27;;;20.03;;
3922;SDS011;1976;51.694;6.256;2022-09-12T07:01:12;38.93;;;20.00;;
3922;SDS011;1976;51.694;6.256;2022-09-12T07:03:39;32.23;;;19.30;;
3922;SDS011;1976;51.694;6.256;2022-09-12T07:06:07;45.03;;;20.50;;
3922;SDS011;1976;51.694;6.256;2022-09-12T07:08:37;32.53;;;16.20;;
3922;SDS011;1976;51.694;6.256;2022-09-12T07:11:08;43.00;;;21.80;;
3922;SDS011;1976;51.694;6.256;2022-09-12T07:13:39;45.43;;;19.70;;
3922;SDS011;1976;51.694;6.256;2022-09-12T07:16:05;36.00;;;19.00;;
3922;SDS011;1976;51.694;6.256;2022-09-12T07:18:32;47.23;;;18.87;;
3922;SDS011;1976;51.694;6.256;2022-09-12T07:20:59;44.80;;;20.97;;
3922;SDS011;1976;51.694;6.256;2022-09-12T07:23:26;43.50;;;22.17;;
3922;SDS011;1976;51.694;6.256;2022-09-12T07:25:52;46.47;;;23.20;;
3922;SDS011;1976;51.694;6.256;2022-09-12T07:28:23;42.87;;;20.60;;
3922;SDS011;1976;51.694;6.256;2022-09-12T07:30:50;40.47;;;19.93;;
3922;SDS011;1976;51.694;6.256;2022-09-12T07:33:18;48.03;;;21.67;;
3922;SDS011;1976;51.694;6.256;2022-09-12T07:35:48;39.47;;;20.17;;
3922;SDS011;1976;51.694;6.256;2022-09-12T07:38:17;39.53;;;20.80;;
3922;SDS011;1976;51.694;6.256;2022-09-12T07:40:43;39.20;;;18.40;;
3922;SDS011;1976;51.694;6.256;2022-09-12T07:43:08;38.17;;;17.97;;
3922;SDS011;1976;51.694;6.256;2022-09-12T07:45:34;32.80;;;17.63;;
3922;SDS011;1976;51.694;6.256;2022-09-12T07:48:00;35.90;;;19.00;;
3922;SDS011;1976;51.694;6.256;2022-09-12T07:50:25;44.67;;;20.67;;
3922;SDS011;1976;51.694;6.256;2022-09-12T07:52:54;35.40;;;20.17;;
3922;SDS011;1976;51.694;6.256;2022-09-12T07:55:20;39.63;;;20.43;;
3922;SDS011;1976;51.694;6.256;2022-09-12T07:57:49;41.90;;;22.10;;
3922;SDS011;1976;51.694;6.256;2022-09-12T08:00:18;29.43;;;18.50;;
3922;SDS011;1976;51.694;6.256;2022-09-12T08:02:43;34.30;;;18.87;;
3922;SDS011;1976;51.694;6.256;2022-09-12T08:05:10;38.73;;;21.53;;
3922;SDS011;1976;51.694;6.256;2022-09-12T08:07:35;39.93;;;19.67;;
3922;SDS011;1976;51.694;6.256;2022-09-12T08:10:01;39.73;;;16.90;;
3922;SDS011;1976;51.694;6.256;2022-09-12T08:12:27;39.10;;;18.37;;
3922;SDS011;1976;51.694;6.256;2022-09-12T08:14:53;30.60;;;16.17;;
3922;SDS011;1976;51.694;6.256;2022-09-12T08:17:19;34.53;;;18.03;;
3922;SDS011;1976;51.694;6.256;2022-09-12T08:19:45;37.87;;;18.50;;
3922;SDS011;1976;51.694;6.256;2022-09-12T08:22:11;33.67;;;18.90;;
3922;SDS011;1976;51.694;6.256;2022-09-12T08:24:37;36.60;;;18.20;;
3922;SDS011;1976;51.694;6.256;2022-09-12T08:27:04;35.87;;;18.20;;
3922;SDS011;1976;51.694;6.256;2022-09-12T08:29:31;31.60;;;16.97;;
3922;SDS011;1976;51.694;6.256;2022-09-12T08:31:56;43.70;;;20.27;;
3922;SDS011;1976;51.694;6.256;2022-09-12T08:34:22;36.00;;;18.17;;
3922;SDS011;1976;51.694;6.256;2022-09-12T08:36:48;34.83;;;16.83;;
3922;SDS011;1976;51.694;6.256;2022-09-12T08:39:15;36.60;;;19.60;;
3922;SDS011;1976;51.694;6.256;2022-09-12T08:41:44;36.63;;;16.57;;
3922;SDS011;1976;51.694;6.256;2022-09-12T08:47:11;37.07;;;19.60;;
3922;SDS011;1976;51.694;6.256;2022-09-12T08:55:42;21.60;;;15.40;;
3922;SDS011;1976;51.694;6.256;2022-09-12T08:58:11;29.93;;;13.93;;
3922;SDS011;1976;51.694;6.256;2022-09-12T09:07:09;22.00;;;14.18;;
3922;SDS011;1976;51.694;6.256;2022-09-12T09:10:07;22.47;;;15.37;;
3922;SDS011;1976;51.694;6.256;2022-09-12T09:12:54;25.03;;;12.27;;
3922;SDS011;1976;51.694;6.256;2022-09-12T09:15:30;17.23;;;12.53;;
3922;SDS011;1976;51.694;6.256;2022-09-12T09:18:17;24.63;;;15.20;;
3922;SDS011;1976;51.694;6.256;2022-09-12T09:20:48;23.27;;;14.43;;
3922;SDS011;1976;51.694;6.256;2022-09-12T09:23:33;27.43;;;15.47;;
3922;SDS011;1976;51.694;6.256;2022-09-12T09:28:45;18.53;;;13.33;;
3922;SDS011;1976;51.694;6.256;2022-09-12T09:31:16;20.23;;;11.07;;
3922;SDS011;1976;51.694;6.256;2022-09-12T09:33:50;21.83;;;12.43;;
3922;SDS011;1976;51.694;6.256;2022-09-12T09:38:56;17.57;;;11.40;;
3922;SDS011;1976;51.694;6.256;2022-09-12T09:44:39;15.53;;;10.60;;
3922;SDS011;1976;51.694;6.256;2022-09-12T09:47:05;23.33;;;13.07;;
3922;SDS011;1976;51.694;6.256;2022-09-12T09:49:34;23.43;;;12.27;;
3922;SDS011;1976;51.694;6.256;2022-09-12T09:52:00;19.50;;;11.80;;
3922;SDS011;1976;51.694;6.256;2022-09-12T09:54:35;16.33;;;11.97;;
3922;SDS011;1976;51.694;6.256;2022-09-12T10:00:03;13.40;;;9.43;;
3922;SDS011;1976;51.694;6.256;2022-09-12T10:05:46;16.07;;;9.33;;
3922;SDS011;1976;51.694;6.256;2022-09-12T10:08:19;19.23;;;9.83;;
3922;SDS011;1976;51.694;6.256;2022-09-12T10:10:53;14.00;;;10.10;;
3922;SDS011;1976;51.694;6.256;2022-09-12T10:13:29;16.17;;;8.67;;
3922;SDS011;1976;51.694;6.256;2022-09-12T10:16:19;12.90;;;9.20;;
3922;SDS011;1976;51.694;6.256;2022-09-12T10:18:46;12.03;;;8.90;;
3922;SDS011;1976;51.694;6.256;2022-09-12T10:26:56;15.00;;;7.97;;
3922;SDS011;1976;51.694;6.256;2022-09-12T10:30:01;8.07;;;6.60;;
3922;SDS011;1976;51.694;6.256;2022-09-12T10:32:36;8.23;;;6.20;;
3922;SDS011;1976;51.694;6.256;2022-09-12T10:35:06;12.00;;;7.47;;
3922;SDS011;1976;51.694;6.256;2022-09-12T10:37:40;12.03;;;5.50;;
3922;SDS011;1976;51.694;6.256;2022-09-12T10:40:37;3.80;;;3.50;;
3922;SDS011;1976;51.694;6.256;2022-09-12T10:43:17;7.13;;;4.70;;
3922;SDS011;1976;51.694;6.256;2022-09-12T10:45:51;5.80;;;5.23;;
3922;SDS011;1976;51.694;6.256;2022-09-12T10:48:31;9.10;;;5.80;;
3922;SDS011;1976;51.694;6.256;2022-09-12T10:50:58;9.10;;;5.87;;
3922;SDS011;1976;51.694;6.256;2022-09-12T10:53:26;7.47;;;5.67;;
3922;SDS011;1976;51.694;6.256;2022-09-12T10:56:13;5.77;;;4.80;;
3922;SDS011;1976;51.694;6.256;2022-09-12T11:09:34;5.83;;;5.20;;
3922;SDS011;1976;51.694;6.256;2022-09-12T11:15:21;6.10;;;5.23;;
3922;SDS011;1976;51.694;6.256;2022-09-12T11:29:00;5.00;;;4.50;;
3922;SDS011;1976;51.694;6.256;2022-09-12T11:34:45;6.23;;;5.63;;
3922;SDS011;1976;51.694;6.256;2022-09-12T11:42:50;6.63;;;4.87;;
3922;SDS011;1976;51.694;6.256;2022-09-12T11:45:22;2.40;;;2.20;;
3922;SDS011;1976;51.694;6.256;2022-09-12T11:47:54;2.50;;;2.30;;
3922;SDS011;1976;51.694;6.256;2022-09-12T11:50:28;3.10;;;2.80;;
3922;SDS011;1976;51.694;6.256;2022-09-12T11:53:10;3.53;;;3.13;;
3922;SDS011;1976;51.694;6.256;2022-09-12T11:55:54;4.50;;;2.93;;
3922;SDS011;1976;51.694;6.256;2022-09-12T11:58:29;5.97;;;4.30;;
3922;SDS011;1976;51.694;6.256;2022-09-12T12:00:56;3.80;;;3.40;;
3922;SDS011;1976;51.694;6.256;2022-09-12T12:03:37;4.70;;;3.83;;
3922;SDS011;1976;51.694;6.256;2022-09-12T12:06:14;4.67;;;3.80;;
3922;SDS011;1976;51.694;6.256;2022-09-12T12:08:54;3.70;;;3.27;;
3922;SDS011;1976;51.694;6.256;2022-09-12T12:13:56;8.90;;;4.20;;
3922;SDS011;1976;51.694;6.256;2022-09-12T12:16:32;4.93;;;3.13;;
3922;SDS011;1976;51.694;6.256;2022-09-12T12:19:02;2.90;;;2.33;;
3922;SDS011;1976;51.694;6.256;2022-09-12T12:24:11;3.67;;;3.37;;
3922;SDS011;1976;51.694;6.256;2022-09-12T12:32:28;4.40;;;3.17;;
3922;SDS011;1976;51.694;6.256;2022-09-12T12:34:35;4.60;;;3.00;;
3922;SDS011;1976;51.694;6.256;2022-09-12T12:44:56;5.13;;;4.23;;
3922;SDS011;1976;51.694;6.256;2022-09-12T12:47:22;5.40;;;4.30;;
3922;SDS011;1976;51.694;6.256;2022-09-12T12:49:54;3.53;;;2.60;;
3922;SDS011;1976;51.694;6.256;2022-09-12T12:52:21;14.00;;;2.90;;
3922;SDS011;1976;51.694;6.256;2022-09-12T12:54:49;3.60;;;2.37;;
3922;SDS011;1976;51.694;6.256;2022-09-12T13:00:05;3.57;;;1.73;;
3922;SDS011;1976;51.694;6.256;2022-09-12T13:05:26;2.97;;;2.03;;
3922;SDS011;1976;51.694;6.256;2022-09-12T13:07:59;17.77;;;2.70;;
3922;SDS011;1976;51.694;6.256;2022-09-12T13:10:31;5.50;;;2.60;;
3922;SDS011;1976;51.694;6.256;2022-09-12T13:12:58;2.50;;;2.30;;
3922;SDS011;1976;51.694;6.256;2022-09-12T13:18:37;2.70;;;2.50;;
3922;SDS011;1976;51.694;6.256;2022-09-12T13:23:30;3.37;;;2.37;;
3922;SDS011;1976;51.694;6.256;2022-09-12T13:26:00;6.00;;;2.70;;
3922;SDS011;1976;51.694;6.256;2022-09-12T13:28:27;4.50;;;3.00;;
3922;SDS011;1976;51.694;6.256;2022-09-12T13:44:27;12.63;;;2.57;;
3922;SDS011;1976;51.694;6.256;2022-09-12T13:46:57;2.77;;;2.20;;
3922;SDS011;1976;51.694;6.256;2022-09-12T13:52:05;2.17;;;2.00;;
3922;SDS011;1976;51.694;6.256;2022-09-12T13:54:38;6.33;;;2.43;;
3922;SDS011;1976;51.694;6.256;2022-09-12T13:57:04;2.90;;;1.60;;
3922;SDS011;1976;51.694;6.256;2022-09-12T13:59:37;1.60;;;1.50;;
3922;SDS011;1976;51.694;6.256;2022-09-12T14:02:21;9.00;;;2.10;;
3922;SDS011;1976;51.694;6.256;2022-09-12T14:04:47;8.13;;;1.70;;
3922;SDS011;1976;51.694;6.256;2022-09-12T14:10:59;8.10;;;2.30;;
3922;SDS011;1976;51.694;6.256;2022-09-12T14:13:17;3.07;;;1.80;;
3922;SDS011;1976;51.694;6.256;2022-09-12T14:15:50;1.80;;;1.70;;
3922;SDS011;1976;51.694;6.256;2022-09-12T14:18:22;2.80;;;1.93;;
3922;SDS011;1976;51.694;6.256;2022-09-12T14:20:50;5.27;;;1.83;;
3922;SDS011;1976;51.694;6.256;2022-09-12T14:23:23;1.90;;;1.70;;
3922;SDS011;1976;51.694;6.256;2022-09-12T14:25:51;4.43;;;2.17;;
3922;SDS011;1976;51.694;6.256;2022-09-12T14:28:18;2.40;;;1.90;;
3922;SDS011;1976;51.694;6.256;2022-09-12T14:33:46;1.97;;;1.83;;
3922;SDS011;1976;51.694;6.256;2022-09-12T14:36:18;2.40;;;1.83;;
3922;SDS011;1976;51.694;6.256;2022-09-12T14:38:45;4.77;;;2.30;;
3922;SDS011;1976;51.694;6.256;2022-09-12T14:41:22;2.70;;;2.20;;
3922;SDS011;1976;51.694;6.256;2022-09-12T14:43:55;4.40;;;2.30;;
3922;SDS011;1976;51.694;6.256;2022-09-12T14:46:27;3.20;;;2.30;;
3922;SDS011;1976;51.694;6.256;2022-09-12T14:49:00;2.30;;;2.10;;
3922;SDS011;1976;51.694;6.256;2022-09-12T14:51:37;6.50;;;2.30;;
3922;SDS011;1976;51.694;6.256;2022-09-12T14:54:33;2.63;;;2.33;;
3922;SDS011;1976;51.694;6.256;2022-09-12T14:56:54;3.17;;;1.87;;
3922;SDS011;1976;51.694;6.256;2022-09-12T15:04:40;2.77;;;1.90;;
3922;SDS011;1976;51.694;6.256;2022-09-12T15:07:17;3.77;;;1.70;;
3922;SDS011;1976;51.694;6.256;2022-09-12T15:11:33;2.17;;;2.00;;
3922;SDS011;1976;51.694;6.256;2022-09-12T15:14:05;4.30;;;1.80;;
3922;SDS011;1976;51.694;6.256;2022-09-12T15:16:36;2.57;;;2.07;;
3922;SDS011;1976;51.694;6.256;2022-09-12T15:19:02;2.00;;;1.80;;
3922;SDS011;1976;51.694;6.256;2022-09-12T15:21:27;1.87;;;1.77;;
3922;SDS011;1976;51.694;6.256;2022-09-12T15:23:53;1.77;;;1.50;;
3922;SDS011;1976;51.694;6.256;2022-09-12T15:26:22;2.60;;;2.20;;
3922;SDS011;1976;51.694;6.256;2022-09-12T15:28:51;1.70;;;1.50;;
3922;SDS011;1976;51.694;6.256;2022-09-12T15:31:24;3.20;;;2.00;;
3922;SDS011;1976;51.694;6.256;2022-09-12T15:33:51;2.43;;;2.20;;
3922;SDS011;1976;51.694;6.256;2022-09-12T15:36:18;2.63;;;2.43;;
3922;SDS011;1976;51.694;6.256;2022-09-12T15:38:46;4.37;;;2.20;;
3922;SDS011;1976;51.694;6.256;2022-09-12T15:41:13;2.47;;;2.27;;
3922;SDS011;1976;51.694;6.256;2022-09-12T15:43:41;10.03;;;2.50;;
3922;SDS011;1976;51.694;6.256;2022-09-12T15:46:09;2.60;;;2.27;;
3922;SDS011;1976;51.694;6.256;2022-09-12T15:48:35;3.67;;;2.77;;
3922;SDS011;1976;51.694;6.256;2022-09-12T15:51:01;3.53;;;2.33;;
3922;SDS011;1976;51.694;6.256;2022-09-12T15:53:28;2.47;;;2.13;;
3922;SDS011;1976;51.694;6.256;2022-09-12T15:55:55;3.70;;;2.60;;
3922;SDS011;1976;51.694;6.256;2022-09-12T15:58:20;3.03;;;2.73;;
3922;SDS011;1976;51.694;6.256;2022-09-12T16:00:46;2.60;;;2.40;;
3922;SDS011;1976;51.694;6.256;2022-09-12T16:03:30;3.57;;;2.97;;
3922;SDS011;1976;51.694;6.256;2022-09-12T16:05:59;4.03;;;2.63;;
3922;SDS011;1976;51.694;6.256;2022-09-12T16:08:27;4.57;;;2.50;;
3922;SDS011;1976;51.694;6.256;2022-09-12T16:10:56;2.53;;;2.23;;
3922;SDS011;1976;51.694;6.256;2022-09-12T16:13:25;2.57;;;2.33;;
3922;SDS011;1976;51.694;6.256;2022-09-12T16:15:51;2.70;;;2.43;;
3922;SDS011;1976;51.694;6.256;2022-09-12T16:18:20;3.07;;;2.73;;
3922;SDS011;1976;51.694;6.256;2022-09-12T16:20:45;2.77;;;2.57;;
3922;SDS011;1976;51.694;6.256;2022-09-12T16:23:11;2.97;;;2.60;;
3922;SDS011;1976;51.694;6.256;2022-09-12T16:25:38;3.30;;;2.53;;
3922;SDS011;1976;51.694;6.256;2022-09-12T16:28:04;4.43;;;2.70;;
3922;SDS011;1976;51.694;6.256;2022-09-12T16:30:31;2.63;;;2.30;;
3922;SDS011;1976;51.694;6.256;2022-09-12T16:32:57;5.50;;;2.73;;
3922;SDS011;1976;51.694;6.256;2022-09-12T16:35:23;4.00;;;2.90;;
3922;SDS011;1976;51.694;6.256;2022-09-12T16:37:48;5.27;;;2.93;;
3922;SDS011;1976;51.694;6.256;2022-09-12T16:40:14;3.27;;;2.97;;
3922;SDS011;1976;51.694;6.256;2022-09-12T16:42:43;3.03;;;2.43;;
3922;SDS011;1976;51.694;6.256;2022-09-12T16:45:09;2.90;;;2.50;;
3922;SDS011;1976;51.694;6.256;2022-09-12T16:47:35;2.90;;;2.57;;
3922;SDS011;1976;51.694;6.256;2022-09-12T16:50:01;4.40;;;2.27;;
3922;SDS011;1976;51.694;6.256;2022-09-12T16:52:27;2.83;;;2.53;;
3922;SDS011;1976;51.694;6.256;2022-09-12T16:54:54;2.77;;;2.57;;
3922;SDS011;1976;51.694;6.256;2022-09-12T16:57:20;2.90;;;2.63;;
3922;SDS011;1976;51.694;6.256;2022-09-12T16:59:46;4.20;;;3.00;;
3922;SDS011;1976;51.694;6.256;2022-09-12T17:02:12;5.23;;;2.90;;
3922;SDS011;1976;51.694;6.256;2022-09-12T17:04:38;10.13;;;2.90;;
3922;SDS011;1976;51.694;6.256;2022-09-12T17:07:04;3.50;;;3.17;;
3922;SDS011;1976;51.694;6.256;2022-09-12T17:09:31;3.90;;;3.10;;
3922;SDS011;1976;51.694;6.256;2022-09-12T17:11:56;8.00;;;3.70;;
3922;SDS011;1976;51.694;6.256;2022-09-12T17:14:23;3.17;;;2.87;;
3922;SDS011;1976;51.694;6.256;2022-09-12T17:16:49;4.17;;;2.83;;
3922;SDS011;1976;51.694;6.256;2022-09-12T17:19:17;4.90;;;2.97;;
3922;SDS011;1976;51.694;6.256;2022-09-12T17:21:44;3.50;;;3.20;;
3922;SDS011;1976;51.694;6.256;2022-09-12T17:24:12;6.27;;;3.43;;
3922;SDS011;1976;51.694;6.256;2022-09-12T17:26:38;9.40;;;3.30;;
3922;SDS011;1976;51.694;6.256;2022-09-12T17:29:04;4.70;;;4.27;;
3922;SDS011;1976;51.694;6.256;2022-09-12T17:31:30;3.37;;;3.10;;
3922;SDS011;1976;51.694;6.256;2022-09-12T17:33:56;4.50;;;3.33;;
3922;SDS011;1976;51.694;6.256;2022-09-12T17:36:23;13.80;;;3.70;;
3922;SDS011;1976;51.694;6.256;2022-09-12T17:38:50;6.87;;;3.50;;
3922;SDS011;1976;51.694;6.256;2022-09-12T17:41:17;14.67;;;3.90;;
3922;SDS011;1976;51.694;6.256;2022-09-12T17:43:49;6.20;;;3.80;;
3922;SDS011;1976;51.694;6.256;2022-09-12T17:46:19;4.80;;;4.30;;
3922;SDS011;1976;51.694;6.256;2022-09-12T17:48:52;5.13;;;4.50;;
3922;SDS011;1976;51.694;6.256;2022-09-12T17:51:19;5.10;;;3.60;;
3922;SDS011;1976;51.694;6.256;2022-09-12T17:53:48;8.13;;;4.37;;
3922;SDS011;1976;51.694;6.256;2022-09-12T17:56:19;8.90;;;4.20;;
3922;SDS011;1976;51.694;6.256;2022-09-12T17:58:45;7.20;;;4.33;;
3922;SDS011;1976;51.694;6.256;2022-09-12T18:01:12;9.83;;;4.43;;
3922;SDS011;1976;51.694;6.256;2022-09-12T18:03:58;4.40;;;4.00;;
3922;SDS011;1976;51.694;6.256;2022-09-12T18:06:28;11.37;;;4.50;;
3922;SDS011;1976;51.694;6.256;2022-09-12T18:08:58;15.50;;;4.60;;
3922;SDS011;1976;51.694;6.256;2022-09-12T18:11:28;8.17;;;4.03;;
3922;SDS011;1976;51.694;6.256;2022-09-12T18:13:53;8.77;;;4.80;;